Time;durP1;ratioP1;P1;durP2;ratioP2;P2;SDS_P1;SDS_P2;PMS_P1;PMS_P2;Temp;Humidity;BMP_temperature;BMP_pressure;BME280_temperature;BME280_humidity;BME280_pressure;Samples;Min_cycle;Max_cycle;Signal;HPM_P1;HPM_P2
2022/11/15 00:00:48;;;;;;;;;;;;;;;13.22;56.09;99541.38;5011375;28;19922;-76
2022/11/15 00:03:14;;;;;;;;;;;;;;;13.22;56.01;99544.00;5011503;28;19917;-76
2022/11/15 00:05:40;;;;;;;;;;;;;;;13.23;56.19;99542.22;5011462;28;20385;-77
2022/11/15 00:08:05;;;;;;;;;;;;;;;13.22;55.94;99533.50;4995549;28;19925;-76
2022/11/15 00:10:30;;;;;;;;;;;;;;;13.22;56.07;99528.28;4981691;28;19915;-76
2022/11/15 00:12:55;;;;;;;;;;;;;;;13.21;56.11;99527.41;4982633;28;19921;-76
2022/11/15 00:15:21;;;;;;;;;;;;;;;13.23;55.95;99529.09;4982509;28;19914;-77
2022/11/15 00:17:49;;;;;;;;;;;;;;;13.24;56.10;99526.38;4999141;28;20313;-78
2022/11/15 00:20:15;;;;;;;;;;;;;;;13.23;56.03;99526.47;4979445;28;19988;-78
2022/11/15 00:22:40;;;;;;;;;;;;;;;13.22;55.93;99523.03;4996796;28;19921;-76
2022/11/15 00:25:05;;;;;;;;;;;;;;;13.23;56.07;99529.09;4995635;28;19921;-78
2022/11/15 00:27:31;;;;;;;;;;;;;;;13.22;55.96;99523.03;4978972;28;20297;-76
2022/11/15 00:29:56;;;;;;;;;;;;;;;13.21;56.15;99509.06;4979258;28;19925;-78
2022/11/15 00:32:21;;;;;;;;;;;;;;;13.23;55.83;99521.22;4995347;28;19918;-77
2022/11/15 00:34:47;;;;;;;;;;;;;;;13.23;55.81;99518.59;4996605;28;19925;-76
2022/11/15 00:37:12;;;;;;;;;;;;;;;13.22;56.15;99507.28;4979147;28;19918;-77
2022/11/15 00:39:37;;;;;;;;;;;;;;;13.21;55.91;99505.63;4978669;28;19925;-77
2022/11/15 00:42:03;;;;;;;;;;;;;;;13.22;55.88;99499.44;4979117;28;19925;-80
2022/11/15 00:44:28;;;;;;;;;;;;;;;13.21;55.97;99497.75;4978464;28;20348;-76
2022/11/15 00:46:53;;;;;;;;;;;;;;;13.21;56.18;99501.19;4978958;28;20016;-77
2022/11/15 00:49:18;;;;;;;;;;;;;;;13.20;56.15;99499.56;4978851;28;19924;-76
2022/11/15 00:51:44;;;;;;;;;;;;;;;13.21;55.81;99497.75;4978683;28;19924;-76
2022/11/15 00:54:09;;;;;;;;;;;;;;;13.21;55.98;99487.25;4978668;28;19917;-76
2022/11/15 00:56:34;;;;;;;;;;;;;;;13.20;55.93;99490.81;4996445;28;20016;-76
2022/11/15 00:59:00;;;;;;;;;;;;;;;13.19;56.13;99487.38;4978810;28;20389;-76
2022/11/15 01:01:25;;;;;;;;;;;;;;;13.19;55.98;99490.00;4994841;28;19921;-76
2022/11/15 01:03:50;;;;;;;;;;;;;;;13.18;55.96;99488.31;4978481;28;19980;-76
2022/11/15 01:06:16;;;;;;;;;;;;;;;13.18;56.27;99479.63;4996936;28;19932;-76
2022/11/15 01:08:41;;;;;;;;;;;;;;;13.18;56.08;99482.25;4995066;28;19918;-76
2022/11/15 01:11:07;;;;;;;;;;;;;;;13.16;56.17;99474.50;4978519;28;19918;-76
2022/11/15 01:13:33;;;;;;;;;;;;;;;13.17;55.74;99472.69;4994743;28;19918;-77
2022/11/15 01:15:58;;;;;;;;;;;;;;;13.17;56.18;99475.31;4977887;28;19924;-77
2022/11/15 01:18:24;;;;;;;;;;;;;;;13.15;56.05;99467.56;4994730;28;20012;-78
2022/11/15 01:20:49;;;;;;;;;;;;;;;13.15;56.09;99464.94;4977057;28;19940;-76
2022/11/15 01:23:14;;;;;;;;;;;;;;;13.15;55.95;99464.94;4978043;28;20320;-75
2022/11/15 01:25:39;;;;;;;;;;;;;;;13.14;56.25;99470.31;4978211;28;19917;-75
2022/11/15 01:28:05;;;;;;;;;;;;;;;13.13;56.30;99464.25;4994553;28;19918;-76
2022/11/15 01:30:30;;;;;;;;;;;;;;;13.13;56.25;99460.78;4978512;28;19918;-77
2022/11/15 01:32:55;;;;;;;;;;;;;;;13.12;56.45;99461.75;4977679;28;19925;-76
2022/11/15 01:35:21;;;;;;;;;;;;;;;13.12;56.47;99459.94;5003318;28;19980;-76
2022/11/15 01:37:46;;;;;;;;;;;;;;;13.12;56.33;99464.34;5030379;28;19917;-75
2022/11/15 01:40:11;;;;;;;;;;;;;;;13.12;56.32;99469.59;5014952;28;19921;-75
2022/11/15 01:42:37;;;;;;;;;;;;;;;13.11;56.20;99458.28;5013667;28;19918;-75
2022/11/15 01:45:02;;;;;;;;;;;;;;;13.11;56.47;99466.16;5013809;28;19972;-76
2022/11/15 01:47:29;;;;;;;;;;;;;;;13.11;56.19;99462.69;5001935;28;19925;-76
2022/11/15 01:49:58;;;;;;;;;;;;;;;13.09;56.31;99448.84;4993799;28;19957;-76
2022/11/15 01:52:24;;;;;;;;;;;;;;;13.10;56.59;99461.03;4981395;28;20455;-77
2022/11/15 01:54:51;;;;;;;;;;;;;;;13.09;56.25;99461.97;4993936;28;19918;-76
2022/11/15 01:57:16;;;;;;;;;;;;;;;13.09;56.59;99454.94;4993577;28;20416;-77
2022/11/15 01:59:42;;;;;;;;;;;;;;;13.09;56.29;99449.69;4977639;28;19924;-77
2022/11/15 02:02:07;;;;;;;;;;;;;;;13.10;56.28;99456.59;4974244;28;19918;-76
2022/11/15 02:04:33;;;;;;;;;;;;;;;13.10;56.23;99454.00;4990513;28;20358;-76
2022/11/15 02:06:58;;;;;;;;;;;;;;;13.10;56.41;99447.91;4990202;28;19933;-77
2022/11/15 02:09:23;;;;;;;;;;;;;;;13.10;56.55;99447.91;5008386;28;19917;-76
2022/11/15 02:11:49;;;;;;;;;;;;;;;13.09;56.25;99443.63;4993779;28;19925;-76
2022/11/15 02:14:14;;;;;;;;;;;;;;;13.09;56.43;99447.06;4993772;28;19918;-76
2022/11/15 02:16:42;;;;;;;;;;;;;;;13.08;56.61;99447.19;4993654;28;20278;-77
2022/11/15 02:19:20;;;;;;;;;;;;;;;13.06;56.63;99436.81;4993562;28;19918;-77
2022/11/15 02:21:45;;;;;;;;;;;;;;;13.06;56.21;99446.47;4993269;28;20370;-76
2022/11/15 02:24:13;;;;;;;;;;;;;;;13.04;56.51;99438.72;4994541;28;20000;-76
2022/11/15 02:26:57;;;;;;;;;;;;;;;13.05;56.58;99436.97;4994920;28;19926;-77
2022/11/15 02:29:28;;;;;;;;;;;;;;;13.05;56.61;99434.34;4993259;28;19925;-76
2022/11/15 02:32:13;;;;;;;;;;;;;;;13.05;56.61;99440.41;4994668;28;19917;-76
2022/11/15 02:34:45;;;;;;;;;;;;;;;13.04;56.67;99438.72;4992673;28;19938;-77
2022/11/15 02:37:20;;;;;;;;;;;;;;;13.05;56.65;99437.78;4977335;28;20039;-77
2022/11/15 02:39:58;;;;;;;;;;;;;;;13.04;56.63;99436.09;4976869;28;19918;-77
2022/11/15 02:45:09;;;;;;;;;;;;;;;13.03;56.65;99437.06;4993975;28;19996;-77
2022/11/15 02:47:35;;;;;;;;;;;;;;;13.05;56.60;99439.59;4993501;28;20384;-77
2022/11/15 02:50:02;;;;;;;;;;;;;;;13.04;56.54;99433.47;5000553;28;19921;-77
2022/11/15 02:52:27;;;;;;;;;;;;;;;13.03;56.69;99442.31;5012723;28;20301;-77
2022/11/15 02:54:56;;;;;;;;;;;;;;;13.03;56.43;99444.94;5012542;28;20436;-76
2022/11/15 02:57:40;;;;;;;;;;;;;;;13.03;56.63;99437.06;5012505;28;19924;-77
2022/11/15 03:00:06;;;;;;;;;;;;;;;13.03;56.72;99437.06;5013433;28;20380;-77
2022/11/15 03:02:42;;;;;;;;;;;;;;;13.02;56.83;99435.38;5012683;28;19918;-76
2022/11/15 03:05:10;;;;;;;;;;;;;;;13.01;56.85;99433.72;5012460;28;19931;-78
2022/11/15 03:07:37;;;;;;;;;;;;;;;13.01;56.50;99423.22;5028348;28;20098;-77
2022/11/15 03:10:06;;;;;;;;;;;;;;;13.01;56.79;99423.22;5012178;28;19918;-76
2022/11/15 03:12:32;;;;;;;;;;;;;;;13.00;56.74;99422.41;5012454;28;19988;-76
2022/11/15 03:15:01;;;;;;;;;;;;;;;13.01;56.77;99416.22;5013264;28;20388;-76
2022/11/15 03:17:30;;;;;;;;;;;;;;;13.01;56.77;99428.47;5012265;28;20354;-76
2022/11/15 03:19:56;;;;;;;;;;;;;;;13.00;56.68;99421.56;5011926;28;20293;-77
2022/11/15 03:22:22;;;;;;;;;;;;;;;13.00;56.57;99419.78;5011974;28;19972;-80
2022/11/15 03:24:50;;;;;;;;;;;;;;;13.00;56.35;99419.78;5011754;28;19971;-77
2022/11/15 03:27:15;;;;;;;;;;;;;;;12.99;56.68;99418.09;5012567;28;20000;-76
2022/11/15 03:29:42;;;;;;;;;;;;;;;12.99;56.60;99412.84;5012444;28;19961;-75
2022/11/15 03:32:18;;;;;;;;;;;;;;;12.99;56.71;99417.28;5012039;28;19940;-76
2022/11/15 03:34:43;;;;;;;;;;;;;;;12.98;56.69;99412.97;5028380;28;19921;-75
2022/11/15 03:37:08;;;;;;;;;;;;;;;12.97;56.59;99406.09;5028140;28;19925;-75
2022/11/15 03:39:33;;;;;;;;;;;;;;;12.97;56.75;99404.28;5011794;28;20403;-76
2022/11/15 03:42:18;;;;;;;;;;;;;;;12.95;56.63;99397.47;5011630;28;19986;-75
2022/11/15 03:44:54;;;;;;;;;;;;;;;12.95;56.66;99397.47;4999861;28;20377;-76
2022/11/15 03:47:21;;;;;;;;;;;;;;;12.94;56.65;99396.66;4975782;28;19977;-76
2022/11/15 03:49:50;;;;;;;;;;;;;;;12.95;56.66;99393.09;4992489;28;19922;-76
2022/11/15 03:52:17;;;;;;;;;;;;;;;12.96;56.68;99388.69;4976129;28;19941;-75
2022/11/15 03:54:49;;;;;;;;;;;;;;;12.95;56.73;99393.09;4976111;28;20450;-75
2022/11/15 03:57:15;;;;;;;;;;;;;;;12.95;56.64;99392.25;4992245;28;19973;-75
2022/11/15 03:59:40;;;;;;;;;;;;;;;12.94;56.68;99394.03;4975669;28;19925;-75
2022/11/15 04:02:05;;;;;;;;;;;;;;;12.95;56.66;99395.72;4991988;28;20371;-75
2022/11/15 04:04:30;;;;;;;;;;;;;;;12.95;56.62;99402.72;4975367;28;20348;-75
2022/11/15 04:06:56;;;;;;;;;;;;;;;12.93;56.61;99392.34;4975363;28;19929;-76
2022/11/15 04:09:21;;;;;;;;;;;;;;;12.94;56.86;99393.22;4991817;28;20020;-76
2022/11/15 04:11:46;;;;;;;;;;;;;;;12.92;56.78;99392.47;4993203;28;19918;-76
2022/11/15 04:14:12;;;;;;;;;;;;;;;12.91;56.70;99398.69;4991774;28;19972;-76
2022/11/15 04:16:37;;;;;;;;;;;;;;;12.91;56.62;99385.59;4975636;28;19918;-77
2022/11/15 04:24:30;;;;;;;;;;;;;;;12.88;56.61;99380.56;4992885;28;19968;-77
2022/11/15 04:26:55;;;;;;;;;;;;;;;12.87;56.95;99387.56;4991038;28;19965;-80
2022/11/15 04:29:36;;;;;;;;;;;;;;;12.87;56.53;99379.72;4975381;28;20013;-79
2022/11/15 04:32:05;;;;;;;;;;;;;;;12.85;56.94;99382.44;4997069;28;19925;-74
2022/11/15 04:34:30;;;;;;;;;;;;;;;12.84;56.98;99378.19;5010643;28;19917;-77
2022/11/15 04:37:15;;;;;;;;;;;;;;;12.84;56.84;99379.97;5010561;28;19929;-77
2022/11/15 04:39:41;;;;;;;;;;;;;;;12.82;56.76;99387.94;5012569;28;19918;-82
2022/11/15 04:42:06;;;;;;;;;;;;;;;12.83;56.97;99379.13;5011149;28;19921;-74
2022/11/15 04:44:31;;;;;;;;;;;;;;;13.18;67.40;99386.09;5011079;28;20380;-75
2022/11/15 04:46:57;;;;;;;;;;;;;;;13.20;63.96;99389.44;5010681;28;20388;-74
2022/11/15 04:49:22;;;;;;;;;;;;;;;13.18;62.93;99391.31;5010889;28;19918;-74
2022/11/15 04:51:47;;;;;;;;;;;;;;;13.17;63.45;99384.44;5026999;28;19921;-73
2022/11/15 04:54:13;;;;;;;;;;;;;;;13.16;61.67;99379.31;5011085;28;19925;-75
2022/11/15 04:56:38;;;;;;;;;;;;;;;13.13;61.01;99379.53;5014038;28;19933;-75
2022/11/15 04:59:03;;;;;;;;;;;;;;;13.09;60.64;99378.91;5030740;28;19917;-76
2022/11/15 05:01:29;;;;;;;;;;;;;;;13.05;60.08;99384.53;5013366;28;19924;-75
2022/11/15 05:06:38;;;;;;;;;;;;;;;12.99;59.44;99377.97;5000497;28;20374;-75
2022/11/15 05:09:03;;;;;;;;;;;;;;;12.96;59.03;99368.53;4992279;28;20024;-74
2022/11/15 05:11:28;;;;;;;;;;;;;;;12.94;58.67;99375.69;4992472;28;19917;-75
2022/11/15 05:13:54;;;;;;;;;;;;;;;12.92;58.68;99369.75;4992481;28;19918;-75
2022/11/15 05:16:19;;;;;;;;;;;;;;;12.91;58.28;99380.34;4993095;28;19983;-75
2022/11/15 05:18:44;;;;;;;;;;;;;;;12.90;58.17;99378.66;4978049;28;19925;-75
2022/11/15 05:21:11;;;;;;;;;;;;;;;12.89;57.83;99374.34;4994012;28;19918;-75
2022/11/15 05:23:36;;;;;;;;;;;;;;;12.88;57.86;99370.91;4978285;28;19922;-74
2022/11/15 05:26:02;;;;;;;;;;;;;;;12.87;57.72;99373.66;4994873;28;19918;-74
2022/11/15 05:28:27;;;;;;;;;;;;;;;12.87;57.53;99373.66;4978503;28;19918;-74
2022/11/15 05:30:53;;;;;;;;;;;;;;;12.87;57.49;99386.75;4978106;28;20300;-74
2022/11/15 05:33:18;;;;;;;;;;;;;;;12.85;57.52;99379.81;4977437;28;19924;-74
2022/11/15 05:35:45;;;;;;;;;;;;;;;12.84;57.42;99375.56;4994393;28;19917;-74
2022/11/15 05:38:11;;;;;;;;;;;;;;;12.84;57.23;99385.22;4994056;28;19922;-74
2022/11/15 05:40:36;;;;;;;;;;;;;;;12.83;57.23;99381.75;4994415;28;20002;-74
2022/11/15 05:43:01;;;;;;;;;;;;;;;12.84;57.28;99391.28;5007679;28;20328;-75
2022/11/15 05:45:27;;;;;;;;;;;;;;;12.85;57.31;99394.72;4978040;28;20387;-74
2022/11/15 05:47:52;;;;;;;;;;;;;;;12.86;57.03;99391.16;4994096;28;19918;-74
2022/11/15 05:50:17;;;;;;;;;;;;;;;12.85;56.94;99392.09;4983372;28;19922;-74
2022/11/15 05:52:43;;;;;;;;;;;;;;;12.85;56.77;99394.72;4993690;28;19941;-74
2022/11/15 05:55:08;;;;;;;;;;;;;;;12.87;56.93;99399.84;5010249;28;19932;-74
2022/11/15 05:57:33;;;;;;;;;;;;;;;12.85;56.73;99399.97;4994062;28;19918;-74
2022/11/15 05:59:59;;;;;;;;;;;;;;;12.87;56.87;99399.84;4993577;28;19929;-75
2022/11/15 06:02:24;;;;;;;;;;;;;;;12.88;56.46;99398.91;4994989;28;19917;-75
2022/11/15 06:04:49;;;;;;;;;;;;;;;12.89;56.70;99405.81;4993918;28;20075;-76
2022/11/15 06:07:14;;;;;;;;;;;;;;;12.87;56.69;99407.72;4992505;28;20421;-76
2022/11/15 06:09:40;;;;;;;;;;;;;;;12.87;56.69;99403.28;4993632;28;19918;-76
2022/11/15 06:12:05;;;;;;;;;;;;;;;12.89;56.65;99408.41;4994882;28;20020;-75
2022/11/15 06:14:30;;;;;;;;;;;;;;;12.89;56.81;99401.41;4993425;28;19924;-75
2022/11/15 06:16:56;;;;;;;;;;;;;;;12.89;56.62;99404.03;4993618;28;19922;-77
2022/11/15 06:19:21;;;;;;;;;;;;;;;12.92;56.30;99405.56;5009935;28;19943;-77
2022/11/15 06:21:46;;;;;;;;;;;;;;;12.93;56.58;99413.31;5029335;28;19981;-76
2022/11/15 06:24:12;;;;;;;;;;;;;;;12.95;56.27;99413.22;5013543;28;19918;-76
2022/11/15 06:26:37;;;;;;;;;;;;;;;12.96;56.52;99409.66;5013229;28;19922;-75
2022/11/15 06:29:03;;;;;;;;;;;;;;;12.97;56.35;99412.16;5013243;28;20300;-76
2022/11/15 06:31:29;;;;;;;;;;;;;;;12.99;56.35;99409.41;5013356;28;20228;-76
2022/11/15 06:33:54;;;;;;;;;;;;;;;12.99;56.35;99414.66;5013289;28;19925;-76
2022/11/15 06:36:20;;;;;;;;;;;;;;;13.08;61.23;99410.47;5029191;28;20020;-76
2022/11/15 06:38:47;;;;;;;;;;;;;;;13.59;66.91;99412.72;5019886;28;19919;-81
2022/11/15 06:41:12;;;;;;;;;;;;;;;13.71;64.19;99421.41;4983245;28;20385;-75
2022/11/15 06:43:38;;;;;;;;;;;;;;;13.93;66.11;99410.91;4989870;28;19925;-76
2022/11/15 06:46:04;;;;;;;;;;;;;;;13.99;63.16;99412.19;4989853;28;20296;-75
2022/11/15 06:48:30;;;;;;;;;;;;;;;13.96;60.58;99407.19;4989513;28;19961;-75
2022/11/15 06:50:56;;;;;;;;;;;;;;;13.89;59.59;99412.09;4989234;28;20463;-74
2022/11/15 06:53:21;;;;;;;;;;;;;;;13.82;59.29;99400.44;4990485;28;20378;-75
2022/11/15 06:55:47;;;;;;;;;;;;;;;13.77;59.14;99409.59;5012312;28;19968;-74
2022/11/15 06:58:12;;;;;;;;;;;;;;;13.71;58.75;99405.66;5012527;28;19960;-74
2022/11/15 07:00:37;;;;;;;;;;;;;;;13.65;58.56;99401.75;5012055;28;19956;-74
2022/11/15 07:03:03;;;;;;;;;;;;;;;13.65;58.13;99414.03;5012240;28;19957;-74
2022/11/15 07:05:28;;;;;;;;;;;;;;;13.59;58.00;99412.72;5012390;28;19925;-75
2022/11/15 07:07:53;;;;;;;;;;;;;;;13.59;57.73;99404.84;5011839;28;19925;-75
2022/11/15 07:10:19;;;;;;;;;;;;;;;13.57;57.24;99406.75;5012004;28;20391;-74
2022/11/15 07:12:48;;;;;;;;;;;;;;;13.56;57.14;99405.09;5013238;28;19921;-72
2022/11/15 07:15:14;;;;;;;;;;;;;;;13.55;57.01;99404.25;5012330;28;19917;-73
2022/11/15 07:17:39;;;;;;;;;;;;;;;13.55;56.71;99400.78;5011909;28;19918;-74
2022/11/15 07:20:05;;;;;;;;;;;;;;;13.54;56.56;99399.97;5011704;28;20397;-74
2022/11/15 07:22:30;;;;;;;;;;;;;;;13.55;56.50;99398.16;5011442;28;20341;-73
2022/11/15 07:24:55;;;;;;;;;;;;;;;13.54;56.46;99399.13;5011617;28;19922;-74
2022/11/15 07:27:21;;;;;;;;;;;;;;;13.56;56.17;99398.03;5012431;28;19924;-73
2022/11/15 07:29:46;;;;;;;;;;;;;;;13.55;56.28;99399.00;5007254;28;19934;-74
2022/11/15 07:32:11;;;;;;;;;;;;;;;13.58;55.95;99392.66;4976107;28;19972;-73
2022/11/15 07:34:36;;;;;;;;;;;;;;;13.61;55.78;99394.22;4975439;28;20286;-74
2022/11/15 07:37:02;;;;;;;;;;;;;;;13.61;55.55;99389.81;4975835;28;20333;-77
2022/11/15 07:39:27;;;;;;;;;;;;;;;13.64;55.60;99392.19;4975865;28;20298;-75
2022/11/15 07:42:52;;;;;;;;;;;;;;;13.65;55.47;99396.50;4976090;28;20300;-74
2022/11/15 07:44:38;;;;;;;;;;;;;;;13.71;59.76;99397.78;4992199;28;19918;-77
2022/11/15 07:47:03;;;;;;;;;;;;;;;14.44;67.07;99393.69;4992179;28;20012;-75
2022/11/15 07:49:31;;;;;;;;;;;;;;;14.93;64.83;99390.63;4992041;28;19968;-77
2022/11/15 07:51:56;;;;;;;;;;;;;;;15.34;62.74;99394.97;4992015;28;19921;-75
2022/11/15 07:54:21;;;;;;;;;;;;;;;15.76;61.09;99393.19;4975776;28;20009;-75
2022/11/15 07:56:47;;;;;;;;;;;;;;;15.75;59.36;99395.00;4975765;28;19918;-76
2022/11/15 07:59:12;;;;;;;;;;;;;;;15.62;57.08;99394.38;4991984;28;19964;-77
2022/11/15 08:01:38;;;;;;;;;;;;;;;15.43;56.21;99392.50;4975536;28;19953;-75
2022/11/15 08:04:03;;;;;;;;;;;;;;;15.32;55.68;99396.06;4975727;28;19917;-76
2022/11/15 08:06:28;;;;;;;;;;;;;;;15.18;55.04;99402.50;4991920;28;19926;-77
2022/11/15 08:08:54;;;;;;;;;;;;;;;15.06;54.73;99393.88;4976177;28;19940;-76
2022/11/15 08:11:19;;;;;;;;;;;;;;;15.01;54.69;99393.44;4991825;28;20381;-76
2022/11/15 08:13:44;;;;;;;;;;;;;;;14.91;54.32;99395.16;4991849;28;19998;-78
2022/11/15 08:16:11;;;;;;;;;;;;;;;14.82;54.17;99392.34;4975913;28;19961;-78
2022/11/15 08:18:37;;;;;;;;;;;;;;;14.75;54.37;99396.41;4975991;28;19922;-79
2022/11/15 08:21:02;;;;;;;;;;;;;;;14.69;54.24;99389.06;4975676;28;19917;-78
2022/11/15 08:23:28;;;;;;;;;;;;;;;14.65;54.30;99392.91;4975459;28;19917;-79
2022/11/15 08:25:58;;;;;;;;;;;;;;;14.60;54.01;99389.84;4975554;28;19996;-79
2022/11/15 08:28:23;;;;;;;;;;;;;;;14.57;54.09;99385.63;4975665;28;20316;-79
2022/11/15 08:30:48;;;;;;;;;;;;;;;14.54;55.48;99385.88;4995026;28;19918;-76
2022/11/15 08:33:14;;;;;;;;;;;;;;;14.51;55.25;99388.75;4996543;28;19917;-79
2022/11/15 08:35:40;;;;;;;;;;;;;;;14.50;54.30;99387.09;4995653;28;19922;-78
2022/11/15 08:38:05;;;;;;;;;;;;;;;14.77;63.64;99391.88;4995614;28;19917;-78
2022/11/15 08:40:30;;;;;;;;;;;;;;;14.88;61.53;99387.50;4995992;28;19924;-78
2022/11/15 08:42:56;;;;;;;;;;;;;;;14.87;59.93;99386.69;4979323;28;19922;-79
2022/11/15 08:45:21;;;;;;;;;;;;;;;14.81;59.23;99380.13;4994912;28;19943;-78
2022/11/15 08:47:46;;;;;;;;;;;;;;;14.78;58.22;99375.13;5015072;28;20483;-77
2022/11/15 08:50:11;;;;;;;;;;;;;;;14.73;57.73;99376.50;5030903;28;19917;-79
2022/11/15 08:52:37;;;;;;;;;;;;;;;14.81;63.75;99374.88;5015013;28;20355;-74
2022/11/15 08:55:02;;;;;;;;;;;;;;;15.17;64.62;99366.66;5015321;28;20304;-81
2022/11/15 08:57:28;;;;;;;;;;;;;;;15.35;63.83;99369.50;5015509;28;20304;-83
2022/11/15 08:59:54;;;;;;;;;;;;;;;15.51;63.42;99367.22;4998082;28;19924;-82
2022/11/15 09:02:19;;;;;;;;;;;;;;;15.78;62.27;99364.97;5014515;28;19917;-76
2022/11/15 09:04:44;;;;;;;;;;;;;;;16.08;60.81;99359.63;5014597;28;19917;-75
2022/11/15 09:07:10;;;;;;;;;;;;;;;16.27;60.45;99352.69;5030546;28;19921;-81
2022/11/15 09:09:36;;;;;;;;;;;;;;;16.24;59.17;99352.94;5014526;28;19928;-72
2022/11/15 09:12:01;;;;;;;;;;;;;;;16.08;56.73;99348.22;5014380;28;19917;-71
2022/11/15 09:14:26;;;;;;;;;;;;;;;15.87;55.85;99341.28;5014164;28;19922;-74
2022/11/15 09:16:52;;;;;;;;;;;;;;;15.69;55.39;99337.63;4998043;28;20304;-73
2022/11/15 09:19:17;;;;;;;;;;;;;;;15.54;55.32;99338.00;5014224;28;20396;-72
2022/11/15 09:21:42;;;;;;;;;;;;;;;15.41;54.95;99323.44;5014256;28;19921;-72
2022/11/15 09:24:08;;;;;;;;;;;;;;;15.26;54.88;99325.56;5014318;28;19975;-71
2022/11/15 09:26:33;;;;;;;;;;;;;;;15.13;54.50;99324.03;5015471;28;19964;-72
2022/11/15 09:29:01;;;;;;;;;;;;;;;15.01;54.51;99323.25;5014049;28;19971;-72
2022/11/15 09:31:26;;;;;;;;;;;;;;;14.90;54.69;99317.28;5014097;28;19918;-73
2022/11/15 09:33:51;;;;;;;;;;;;;;;14.80;54.72;99325.06;4997394;28;19929;-73
2022/11/15 09:36:17;;;;;;;;;;;;;;;14.78;60.58;99317.31;5014033;28;19918;-74
2022/11/15 09:38:42;;;;;;;;;;;;;;;14.80;58.87;99315.41;5014469;28;20395;-74
2022/11/15 09:41:13;;;;;;;;;;;;;;;14.73;57.40;99305.56;5013370;28;20051;-73
2022/11/15 09:43:56;;;;;;;;;;;;;;;14.68;56.48;99310.38;5030113;28;20004;-74
2022/11/15 09:46:32;;;;;;;;;;;;;;;14.56;56.15;99312.19;5014090;28;19918;-75
2022/11/15 09:48:58;;;;;;;;;;;;;;;14.47;55.80;99298.88;5013575;28;19918;-74
2022/11/15 09:51:31;;;;;;;;;;;;;;;14.44;55.79;99304.38;5013923;28;19921;-73
2022/11/15 09:54:00;;;;;;;;;;;;;;;14.40;55.56;99302.94;5013705;28;20004;-79
2022/11/15 09:56:32;;;;;;;;;;;;;;;14.35;55.50;99293.81;5011779;28;19917;-78
2022/11/15 09:59:00;;;;;;;;;;;;;;;14.32;55.36;99289.63;4981000;28;19926;-79
2022/11/15 10:01:34;;;;;;;;;;;;;;;14.31;55.29;99285.34;5013355;28;19970;-74
2022/11/15 10:03:59;;;;;;;;;;;;;;;14.29;55.16;99282.00;5013633;28;20372;-75
2022/11/15 10:06:25;;;;;;;;;;;;;;;14.27;54.86;99274.25;5013270;28;19932;-79
2022/11/15 10:09:05;;;;;;;;;;;;;;;14.26;54.71;99269.13;5013605;28;19921;-80
2022/11/15 10:11:32;;;;;;;;;;;;;;;14.26;54.53;99274.38;5030195;28;20372;-80
2022/11/15 10:14:01;;;;;;;;;;;;;;;14.25;54.48;99270.09;5013511;28;19945;-79
2022/11/15 10:16:26;;;;;;;;;;;;;;;14.20;54.61;99262.59;5013513;28;20423;-79
2022/11/15 10:19:04;;;;;;;;;;;;;;;14.18;54.55;99259.25;5029599;28;19924;-78
2022/11/15 10:21:34;;;;;;;;;;;;;;;14.17;54.37;99252.38;5012770;28;19918;-78
2022/11/15 10:23:59;;;;;;;;;;;;;;;14.15;54.41;99246.38;5012897;28;19929;-78
2022/11/15 10:26:25;;;;;;;;;;;;;;;14.14;54.52;99243.88;5013097;28;19918;-79
2022/11/15 10:28:50;;;;;;;;;;;;;;;14.14;54.51;99243.88;5013086;28;19972;-78
2022/11/15 10:31:25;;;;;;;;;;;;;;;14.14;54.54;99243.88;5012977;28;19941;-79
2022/11/15 10:33:51;;;;;;;;;;;;;;;14.15;54.40;99238.50;5012743;28;20319;-79
2022/11/15 10:36:17;;;;;;;;;;;;;;;14.14;54.40;99234.22;5013039;28;19921;-81
2022/11/15 10:38:48;;;;;;;;;;;;;;;14.14;54.46;99228.13;5013525;28;19924;-79
2022/11/15 10:41:14;;;;;;;;;;;;;;;14.14;54.50;99230.75;5029258;28;19917;-79
2022/11/15 10:43:39;;;;;;;;;;;;;;;14.15;54.47;99224.56;5012555;28;19933;-81
2022/11/15 10:46:22;;;;;;;;;;;;;;;14.14;54.34;99217.63;5012822;28;20475;-80
2022/11/15 10:48:47;;;;;;;;;;;;;;;14.17;54.29;99215.59;5012713;28;20423;-79
2022/11/15 10:51:25;;;;;;;;;;;;;;;14.20;54.21;99215.34;5012601;28;19960;-80
2022/11/15 10:53:51;;;;;;;;;;;;;;;14.20;54.21;99207.47;5012345;28;19967;-80
2022/11/15 10:56:16;;;;;;;;;;;;;;;14.23;54.15;99212.47;5012476;28;20380;-79
2022/11/15 10:58:42;;;;;;;;;;;;;;;14.26;53.93;99217.47;5012049;28;19976;-79
2022/11/15 11:01:21;;;;;;;;;;;;;;;14.30;53.90;99212.78;5012644;28;20285;-78
2022/11/15 11:04:03;;;;;;;;;;;;;;;14.31;53.77;99217.06;5028559;28;19921;-79
2022/11/15 11:06:28;;;;;;;;;;;;;;;14.30;53.94;99204.91;5011909;28;19976;-79
2022/11/15 11:08:54;;;;;;;;;;;;;;;14.30;53.79;99210.16;5012200;28;19917;-79
2022/11/15 11:11:19;;;;;;;;;;;;;;;14.32;53.78;99207.41;5028404;28;19917;-80
2022/11/15 11:13:44;;;;;;;;;;;;;;;14.32;53.90;99195.09;5024832;28;19930;-79
2022/11/15 11:16:36;;;;;;;;;;;;;;;14.35;53.76;99196.63;4992666;28;19924;-79
2022/11/15 11:19:08;;;;;;;;;;;;;;;14.34;53.62;99193.16;4987926;28;20025;-78
2022/11/15 11:21:33;;;;;;;;;;;;;;;14.33;53.57;99196.75;4975939;28;19918;-79
2022/11/15 11:24:05;;;;;;;;;;;;;;;14.33;53.61;99194.13;4993744;28;20385;-78
2022/11/15 11:26:45;;;;;;;;;;;;;;;14.30;53.54;99189.16;4993902;28;19924;-77
2022/11/15 11:29:29;;;;;;;;;;;;;;;14.27;53.65;99184.16;4991543;28;20009;-78
2022/11/15 11:32:17;;;;;;;;;;;;;;;14.25;53.71;99179.03;4993533;28;19941;-78
2022/11/15 11:34:51;;;;;;;;;;;;;;;14.24;53.75;99177.34;4914582;29;19923;-77
2022/11/15 11:37:21;;;;;;;;;;;;;;;14.21;53.88;99182.03;4898482;29;19927;-78
2022/11/15 11:39:47;;;;;;;;;;;;;;;14.22;53.82;99176.66;4914418;29;20467;-79
2022/11/15 11:42:27;;;;;;;;;;;;;;;14.19;53.78;99171.66;4914072;29;19961;-78
2022/11/15 11:45:03;;;;;;;;;;;;;;;14.17;53.98;99170.13;4914430;29;19919;-80
2022/11/15 11:47:30;;;;;;;;;;;;;;;14.15;53.93;99165.00;4898867;29;19919;-79
2022/11/15 11:49:57;;;;;;;;;;;;;;;14.17;53.82;99162.25;4898536;29;20022;-78
2022/11/15 11:52:30;;;;;;;;;;;;;;;14.16;53.72;99152.72;4898429;29;19919;-79
2022/11/15 11:54:55;;;;;;;;;;;;;;;14.14;53.73;99155.47;4898899;29;19919;-79
2022/11/15 11:57:46;;;;;;;;;;;;;;;14.13;53.90;99152.97;4898869;29;19926;-78
2022/11/15 12:00:14;;;;;;;;;;;;;;;14.15;53.94;99148.41;4912216;29;20328;-79
2022/11/15 12:02:44;;;;;;;;;;;;;;;14.14;53.85;99133.63;4898262;29;19941;-80
2022/11/15 12:05:21;;;;;;;;;;;;;;;14.13;53.95;99138.06;4899245;29;19975;-79
2022/11/15 12:07:46;;;;;;;;;;;;;;;14.13;53.79;99135.44;4901822;29;20400;-79
2022/11/15 12:10:15;;;;;;;;;;;;;;;14.13;53.95;99126.72;4902327;29;19926;-80
2022/11/15 12:12:59;;;;;;;;;;;;;;;14.13;53.85;99130.16;4987739;28;20309;-79
2022/11/15 12:15:26;;;;;;;;;;;;;;;14.11;53.98;99124.22;5012342;28;19918;-80
2022/11/15 12:17:51;;;;;;;;;;;;;;;14.11;53.94;99125.06;4979536;28;19967;-79
2022/11/15 12:20:18;;;;;;;;;;;;;;;14.12;53.92;99115.38;4995197;28;19977;-78
2022/11/15 12:22:53;;;;;;;;;;;;;;;14.14;53.95;99112.63;4979946;28;19985;-79
2022/11/15 12:25:25;;;;;;;;;;;;;;;14.15;53.82;99103.78;4995589;28;20009;-79
2022/11/15 12:28:10;;;;;;;;;;;;;;;14.13;53.90;99111.78;4997079;28;19917;-79
2022/11/15 12:30:44;;;;;;;;;;;;;;;14.14;53.95;99105.59;4964527;28;20009;-79
2022/11/15 12:33:28;;;;;;;;;;;;;;;14.14;54.07;99102.13;4960020;28;19957;-81
2022/11/15 12:36:01;;;;;;;;;;;;;;;14.15;53.61;99095.91;4976354;28;19922;-78
2022/11/15 12:38:45;;;;;;;;;;;;;;;14.16;53.91;99087.09;4976058;28;19918;-79
2022/11/15 12:41:17;;;;;;;;;;;;;;;14.15;53.67;99094.09;4976999;28;19925;-79
2022/11/15 12:43:42;;;;;;;;;;;;;;;14.12;53.83;99083.88;4975718;28;19918;-79
2022/11/15 12:46:12;;;;;;;;;;;;;;;14.10;53.77;99081.41;4976360;28;19925;-80
2022/11/15 12:48:37;;;;;;;;;;;;;;;14.13;53.76;99084.72;4959886;28;19922;-78
2022/11/15 12:51:03;;;;;;;;;;;;;;;14.10;53.74;99083.19;4975549;28;19925;-78
2022/11/15 12:53:32;;;;;;;;;;;;;;;14.09;53.70;99076.28;4959360;28;20447;-79
2022/11/15 12:56:03;;;;;;;;;;;;;;;14.08;53.71;99079.88;4975539;28;20374;-80
2022/11/15 12:58:46;;;;;;;;;;;;;;;14.07;53.57;99078.19;4977416;28;19917;-80
2022/11/15 13:01:30;;;;;;;;;;;;;;;14.05;53.62;99075.69;4975435;28;19973;-79